sensor_id;sensor_type;location;lat;lon;timestamp;pressure;altitude;pressure_sealevel;temperature;humidity
51067;BME280;37112;45.892;-123.962;2022-08-19T00:01:38;101300.44;;;20.66;77.11
51067;BME280;37112;45.892;-123.962;2022-08-19T00:03:52;101302.63;;;20.64;77.18
51067;BME280;37112;45.892;-123.962;2022-08-19T00:06:05;101303.34;;;20.64;77.22
51067;BME280;37112;45.892;-123.962;2022-08-19T00:08:18;101304.77;;;20.66;77.65
51067;BME280;37112;45.892;-123.962;2022-08-19T00:10:31;101306.34;;;20.74;77.86
51067;BME280;37112;45.892;-123.962;2022-08-19T00:12:44;101310.33;;;20.81;77.73
51067;BME280;37112;45.892;-123.962;2022-08-19T00:14:57;101299.23;;;20.83;77.76
51067;BME280;37112;45.892;-123.962;2022-08-19T00:17:11;101295.14;;;20.92;77.44
51067;BME280;37112;45.892;-123.962;2022-08-19T00:19:25;101291.11;;;20.91;77.05
51067;BME280;37112;45.892;-123.962;2022-08-19T00:21:38;101288.73;;;20.89;77.14
51067;BME280;37112;45.892;-123.962;2022-08-19T00:23:51;101289.30;;;20.87;77.06
51067;BME280;37112;45.892;-123.962;2022-08-19T00:26:05;101289.09;;;20.83;76.71
51067;BME280;37112;45.892;-123.962;2022-08-19T00:28:18;101284.71;;;20.77;76.46
51067;BME280;37112;45.892;-123.962;2022-08-19T00:30:31;101281.77;;;20.72;76.74
51067;BME280;37112;45.892;-123.962;2022-08-19T00:32:44;101279.59;;;20.69;76.54
51067;BME280;37112;45.892;-123.962;2022-08-19T00:34:57;101283.94;;;20.64;76.71
51067;BME280;37112;45.892;-123.962;2022-08-19T00:37:11;101288.02;;;20.59;76.87
51067;BME280;37112;45.892;-123.962;2022-08-19T00:39:24;101290.14;;;20.54;76.74
51067;BME280;37112;45.892;-123.962;2022-08-19T00:41:37;101286.77;;;20.50;76.68
51067;BME280;37112;45.892;-123.962;2022-08-19T00:44:02;101279.98;;;20.47;77.07
51067;BME280;37112;45.892;-123.962;2022-08-19T00:46:15;101279.27;;;20.43;77.00
51067;BME280;37112;45.892;-123.962;2022-08-19T00:48:29;101278.60;;;20.43;77.19
51067;BME280;37112;45.892;-123.962;2022-08-19T00:50:44;101275.50;;;20.43;77.29
51067;BME280;37112;45.892;-123.962;2022-08-19T00:53:00;101274.63;;;20.47;77.73
51067;BME280;37112;45.892;-123.962;2022-08-19T00:55:16;101267.78;;;20.50;77.80
51067;BME280;37112;45.892;-123.962;2022-08-19T00:57:35;101264.91;;;20.50;77.48
51067;BME280;37112;45.892;-123.962;2022-08-19T00:59:51;101260.13;;;20.47;77.76
51067;BME280;37112;45.892;-123.962;2022-08-19T01:02:11;101266.80;;;20.49;77.96
51067;BME280;37112;45.892;-123.962;2022-08-19T01:04:25;101266.38;;;20.53;77.96
51067;BME280;37112;45.892;-123.962;2022-08-19T01:06:39;101264.75;;;20.57;77.99
51067;BME280;37112;45.892;-123.962;2022-08-19T01:08:53;101265.33;;;20.60;77.94
51067;BME280;37112;45.892;-123.962;2022-08-19T01:11:07;101259.19;;;20.62;78.16
51067;BME280;37112;45.892;-123.962;2022-08-19T01:13:23;101256.17;;;20.63;78.08
51067;BME280;37112;45.892;-123.962;2022-08-19T01:16:00;101259.06;;;20.65;77.66
51067;BME280;37112;45.892;-123.962;2022-08-19T01:18:15;101261.27;;;20.65;77.68
51067;BME280;37112;45.892;-123.962;2022-08-19T01:20:29;101265.35;;;20.69;78.11
51067;BME280;37112;45.892;-123.962;2022-08-19T01:22:47;101264.68;;;20.74;78.10
51067;BME280;37112;45.892;-123.962;2022-08-19T01:25:00;101262.37;;;20.72;77.74
51067;BME280;37112;45.892;-123.962;2022-08-19T01:27:23;101259.36;;;20.66;77.20
51067;BME280;37112;45.892;-123.962;2022-08-19T01:29:51;101259.66;;;20.57;77.34
51067;BME280;37112;45.892;-123.962;2022-08-19T01:32:06;101264.08;;;20.55;77.46
51067;BME280;37112;45.892;-123.962;2022-08-19T01:34:39;101263.64;;;20.52;77.50
51067;BME280;37112;45.892;-123.962;2022-08-19T01:36:57;101261.91;;;20.53;77.70
51067;BME280;37112;45.892;-123.962;2022-08-19T01:39:13;101261.56;;;20.51;77.34
51067;BME280;37112;45.892;-123.962;2022-08-19T01:41:28;101262.81;;;20.51;77.78
51067;BME280;37112;45.892;-123.962;2022-08-19T01:43:41;101259.83;;;20.54;77.87
51067;BME280;37112;45.892;-123.962;2022-08-19T01:46:14;101257.69;;;20.55;78.11
51067;BME280;37112;45.892;-123.962;2022-08-19T01:48:36;101264.04;;;20.55;77.98
51067;BME280;37112;45.892;-123.962;2022-08-19T01:50:49;101265.71;;;20.49;77.60
51067;BME280;37112;45.892;-123.962;2022-08-19T01:53:04;101263.16;;;20.41;77.36
51067;BME280;37112;45.892;-123.962;2022-08-19T01:55:19;101262.48;;;20.25;76.57
51067;BME280;37112;45.892;-123.962;2022-08-19T01:57:34;101256.20;;;20.16;76.94
51067;BME280;37112;45.892;-123.962;2022-08-19T01:59:47;101256.36;;;20.11;77.13
51067;BME280;37112;45.892;-123.962;2022-08-19T02:02:01;101258.59;;;20.08;77.26
51067;BME280;37112;45.892;-123.962;2022-08-19T02:04:16;101262.75;;;20.03;77.12
51067;BME280;37112;45.892;-123.962;2022-08-19T02:06:29;101263.08;;;19.94;77.05
51067;BME280;37112;45.892;-123.962;2022-08-19T02:08:43;101265.58;;;19.87;77.29
51067;BME280;37112;45.892;-123.962;2022-08-19T02:11:00;101267.41;;;19.83;77.54
51067;BME280;37112;45.892;-123.962;2022-08-19T02:13:14;101264.19;;;19.75;77.15
51067;BME280;37112;45.892;-123.962;2022-08-19T02:15:34;101263.88;;;19.67;77.31
51067;BME280;37112;45.892;-123.962;2022-08-19T02:17:48;101265.69;;;19.64;77.43
51067;BME280;37112;45.892;-123.962;2022-08-19T02:20:01;101272.23;;;19.59;77.58
51067;BME280;37112;45.892;-123.962;2022-08-19T02:22:14;101275.09;;;19.54;77.10
51067;BME280;37112;45.892;-123.962;2022-08-19T02:24:27;101267.95;;;19.46;77.36
51067;BME280;37112;45.892;-123.962;2022-08-19T02:26:40;101253.86;;;19.44;77.49
51067;BME280;37112;45.892;-123.962;2022-08-19T02:28:53;101246.91;;;19.43;77.79
51067;BME280;37112;45.892;-123.962;2022-08-19T02:31:11;101245.52;;;19.48;78.16
51067;BME280;37112;45.892;-123.962;2022-08-19T02:33:25;101247.41;;;19.53;78.32
51067;BME280;37112;45.892;-123.962;2022-08-19T02:35:38;101242.95;;;19.53;78.26
51067;BME280;37112;45.892;-123.962;2022-08-19T02:37:53;101241.64;;;19.45;77.81
51067;BME280;37112;45.892;-123.962;2022-08-19T02:40:22;101243.95;;;19.39;77.91
51067;BME280;37112;45.892;-123.962;2022-08-19T02:42:35;101243.81;;;19.38;78.20
51067;BME280;37112;45.892;-123.962;2022-08-19T02:44:48;101248.32;;;19.36;78.24
51067;BME280;37112;45.892;-123.962;2022-08-19T02:47:02;101250.26;;;19.35;78.48
51067;BME280;37112;45.892;-123.962;2022-08-19T02:49:15;101251.56;;;19.36;78.58
51067;BME280;37112;45.892;-123.962;2022-08-19T02:51:29;101248.38;;;19.36;78.81
51067;BME280;37112;45.892;-123.962;2022-08-19T02:53:43;101249.36;;;19.33;78.78
51067;BME280;37112;45.892;-123.962;2022-08-19T02:55:57;101253.44;;;19.30;78.59
51067;BME280;37112;45.892;-123.962;2022-08-19T02:58:10;101258.75;;;19.25;78.79
51067;BME280;37112;45.892;-123.962;2022-08-19T03:00:23;101261.35;;;19.17;78.76
51067;BME280;37112;45.892;-123.962;2022-08-19T03:02:36;101255.92;;;19.08;78.76
51067;BME280;37112;45.892;-123.962;2022-08-19T03:04:49;101254.30;;;19.02;78.79
51067;BME280;37112;45.892;-123.962;2022-08-19T03:07:03;101247.95;;;18.99;78.89
51067;BME280;37112;45.892;-123.962;2022-08-19T03:09:20;101241.80;;;18.97;79.24
51067;BME280;37112;45.892;-123.962;2022-08-19T03:11:34;101235.47;;;18.98;79.28
51067;BME280;37112;45.892;-123.962;2022-08-19T03:13:48;101232.02;;;18.98;79.49
51067;BME280;37112;45.892;-123.962;2022-08-19T03:16:03;101226.86;;;18.99;79.77
51067;BME280;37112;45.892;-123.962;2022-08-19T03:18:18;101223.09;;;19.01;79.82
51067;BME280;37112;45.892;-123.962;2022-08-19T03:20:31;101223.61;;;19.03;79.99
51067;BME280;37112;45.892;-123.962;2022-08-19T03:22:45;101230.24;;;19.05;80.22
51067;BME280;37112;45.892;-123.962;2022-08-19T03:24:58;101233.09;;;19.06;80.08
51067;BME280;37112;45.892;-123.962;2022-08-19T03:27:11;101238.71;;;18.98;79.66
51067;BME280;37112;45.892;-123.962;2022-08-19T03:29:24;101243.48;;;18.87;79.45
51067;BME280;37112;45.892;-123.962;2022-08-19T03:31:40;101245.48;;;18.81;79.71
51067;BME280;37112;45.892;-123.962;2022-08-19T03:34:00;101243.75;;;18.77;79.83
51067;BME280;37112;45.892;-123.962;2022-08-19T03:36:17;101245.61;;;18.74;80.01
51067;BME280;37112;45.892;-123.962;2022-08-19T03:38:32;101246.63;;;18.71;80.19
51067;BME280;37112;45.892;-123.962;2022-08-19T03:40:45;101244.55;;;18.70;80.39
51067;BME280;37112;45.892;-123.962;2022-08-19T03:42:58;101244.38;;;18.68;80.47
51067;BME280;37112;45.892;-123.962;2022-08-19T03:45:12;101250.08;;;18.60;80.33
51067;BME280;37112;45.892;-123.962;2022-08-19T03:47:26;101256.61;;;18.56;80.43
51067;BME280;37112;45.892;-123.962;2022-08-19T03:49:39;101254.46;;;18.56;80.83
51067;BME280;37112;45.892;-123.962;2022-08-19T03:51:53;101253.77;;;18.55;80.97
51067;BME280;37112;45.892;-123.962;2022-08-19T03:54:10;101256.50;;;18.51;80.77
51067;BME280;37112;45.892;-123.962;2022-08-19T03:56:24;101261.41;;;18.45;80.74
51067;BME280;37112;45.892;-123.962;2022-08-19T03:58:39;101262.75;;;18.40;80.79
51067;BME280;37112;45.892;-123.962;2022-08-19T04:00:55;101267.73;;;18.37;80.82
51067;BME280;37112;45.892;-123.962;2022-08-19T04:03:09;101271.89;;;18.37;81.25
51067;BME280;37112;45.892;-123.962;2022-08-19T04:05:22;101270.48;;;18.39;81.55
51067;BME280;37112;45.892;-123.962;2022-08-19T04:07:36;101275.86;;;18.41;81.64
51067;BME280;37112;45.892;-123.962;2022-08-19T04:09:49;101272.27;;;18.42;81.94
51067;BME280;37112;45.892;-123.962;2022-08-19T04:12:04;101275.59;;;18.45;82.06
51067;BME280;37112;45.892;-123.962;2022-08-19T04:14:21;101278.76;;;18.44;81.81
51067;BME280;37112;45.892;-123.962;2022-08-19T04:16:35;101277.98;;;18.39;81.65
51067;BME280;37112;45.892;-123.962;2022-08-19T04:18:49;101271.25;;;18.36;81.87
51067;BME280;37112;45.892;-123.962;2022-08-19T04:21:02;101272.17;;;18.35;81.93
51067;BME280;37112;45.892;-123.962;2022-08-19T04:23:36;101269.00;;;18.37;82.15
51067;BME280;37112;45.892;-123.962;2022-08-19T04:25:54;101267.06;;;18.41;82.36
51067;BME280;37112;45.892;-123.962;2022-08-19T04:28:08;101266.86;;;18.43;82.56
51067;BME280;37112;45.892;-123.962;2022-08-19T04:30:22;101275.83;;;18.43;82.45
51067;BME280;37112;45.892;-123.962;2022-08-19T04:32:36;101275.86;;;18.43;82.52
51067;BME280;37112;45.892;-123.962;2022-08-19T04:34:49;101272.24;;;18.35;82.17
51067;BME280;37112;45.892;-123.962;2022-08-19T04:37:23;101269.23;;;18.27;82.16
51067;BME280;37112;45.892;-123.962;2022-08-19T04:39:44;101275.67;;;18.25;82.51
51067;BME280;37112;45.892;-123.962;2022-08-19T04:42:20;101280.35;;;18.25;82.86
51067;BME280;37112;45.892;-123.962;2022-08-19T04:44:51;101281.55;;;18.24;82.88
51067;BME280;37112;45.892;-123.962;2022-08-19T04:47:05;101286.61;;;18.21;82.58
51067;BME280;37112;45.892;-123.962;2022-08-19T04:49:21;101289.39;;;18.17;82.68
51067;BME280;37112;45.892;-123.962;2022-08-19T04:51:35;101289.06;;;18.10;82.68
51067;BME280;37112;45.892;-123.962;2022-08-19T04:53:49;101290.09;;;18.02;82.60
51067;BME280;37112;45.892;-123.962;2022-08-19T04:56:07;101294.78;;;17.95;82.51
51067;BME280;37112;45.892;-123.962;2022-08-19T04:58:21;101296.34;;;17.81;82.07
51067;BME280;37112;45.892;-123.962;2022-08-19T05:00:36;101309.19;;;17.69;81.87
51067;BME280;37112;45.892;-123.962;2022-08-19T05:02:50;101322.80;;;17.60;81.78
51067;BME280;37112;45.892;-123.962;2022-08-19T05:05:05;101328.64;;;17.52;81.80
51067;BME280;37112;45.892;-123.962;2022-08-19T05:07:19;101325.79;;;17.46;81.83
51067;BME280;37112;45.892;-123.962;2022-08-19T05:09:33;101329.45;;;17.41;82.13
51067;BME280;37112;45.892;-123.962;2022-08-19T05:12:08;101322.06;;;17.39;83.12
51067;BME280;37112;45.892;-123.962;2022-08-19T05:14:21;101321.64;;;17.42;83.84
51067;BME280;37112;45.892;-123.962;2022-08-19T05:16:39;101323.83;;;17.46;84.42
51067;BME280;37112;45.892;-123.962;2022-08-19T05:18:53;101321.02;;;17.51;84.57
51067;BME280;37112;45.892;-123.962;2022-08-19T05:21:23;101314.58;;;17.57;84.82
51067;BME280;37112;45.892;-123.962;2022-08-19T05:23:53;101310.84;;;17.61;84.97
51067;BME280;37112;45.892;-123.962;2022-08-19T05:26:07;101303.27;;;17.63;85.17
51067;BME280;37112;45.892;-123.962;2022-08-19T05:28:21;101299.67;;;17.65;85.25
51067;BME280;37112;45.892;-123.962;2022-08-19T05:30:35;101291.81;;;17.67;85.31
51067;BME280;37112;45.892;-123.962;2022-08-19T05:32:56;101295.28;;;17.71;85.47
51067;BME280;37112;45.892;-123.962;2022-08-19T05:35:09;101298.77;;;17.74;85.55
51067;BME280;37112;45.892;-123.962;2022-08-19T05:37:22;101302.48;;;17.76;85.81
51067;BME280;37112;45.892;-123.962;2022-08-19T05:39:38;101303.86;;;17.79;85.84
51067;BME280;37112;45.892;-123.962;2022-08-19T05:41:52;101307.56;;;17.82;85.98
51067;BME280;37112;45.892;-123.962;2022-08-19T05:44:07;101314.86;;;17.83;85.96
51067;BME280;37112;45.892;-123.962;2022-08-19T05:46:21;101310.10;;;17.84;86.02
51067;BME280;37112;45.892;-123.962;2022-08-19T05:48:37;101318.44;;;17.87;86.29
51067;BME280;37112;45.892;-123.962;2022-08-19T05:50:50;101324.27;;;17.88;86.26
51067;BME280;37112;45.892;-123.962;2022-08-19T05:53:03;101330.66;;;17.87;86.32
51067;BME280;37112;45.892;-123.962;2022-08-19T05:55:16;101336.05;;;17.87;86.36
51067;BME280;37112;45.892;-123.962;2022-08-19T05:57:30;101341.84;;;17.87;86.33
51067;BME280;37112;45.892;-123.962;2022-08-19T05:59:43;101351.82;;;17.85;86.42
51067;BME280;37112;45.892;-123.962;2022-08-19T06:02:02;101360.19;;;17.84;86.56
51067;BME280;37112;45.892;-123.962;2022-08-19T06:04:16;101360.91;;;17.80;86.25
51067;BME280;37112;45.892;-123.962;2022-08-19T06:06:31;101361.96;;;17.74;85.98
51067;BME280;37112;45.892;-123.962;2022-08-19T06:08:46;101361.23;;;17.62;85.39
51067;BME280;37112;45.892;-123.962;2022-08-19T06:11:10;101359.94;;;17.54;85.41
51067;BME280;37112;45.892;-123.962;2022-08-19T06:13:24;101357.38;;;17.48;85.60
51067;BME280;37112;45.892;-123.962;2022-08-19T06:15:43;101353.59;;;17.42;85.68
51067;BME280;37112;45.892;-123.962;2022-08-19T06:17:57;101354.31;;;17.38;85.82
51067;BME280;37112;45.892;-123.962;2022-08-19T06:20:13;101352.37;;;17.33;86.24
51067;BME280;37112;45.892;-123.962;2022-08-19T06:22:49;101349.13;;;17.30;86.64
51067;BME280;37112;45.892;-123.962;2022-08-19T06:25:02;101346.35;;;17.29;86.78
51067;BME280;37112;45.892;-123.962;2022-08-19T06:27:15;101341.86;;;17.28;87.20
51067;BME280;37112;45.892;-123.962;2022-08-19T06:29:29;101339.33;;;17.29;87.28
51067;BME280;37112;45.892;-123.962;2022-08-19T06:31:44;101334.56;;;17.30;87.42
51067;BME280;37112;45.892;-123.962;2022-08-19T06:33:58;101341.77;;;17.27;87.14
51067;BME280;37112;45.892;-123.962;2022-08-19T06:36:19;101343.93;;;17.17;86.68
51067;BME280;37112;45.892;-123.962;2022-08-19T06:38:34;101338.73;;;17.06;86.51
51067;BME280;37112;45.892;-123.962;2022-08-19T06:40:47;101338.74;;;17.02;86.77
51067;BME280;37112;45.892;-123.962;2022-08-19T06:43:00;101339.09;;;17.02;87.12
51067;BME280;37112;45.892;-123.962;2022-08-19T06:45:16;101341.46;;;17.02;87.41
51067;BME280;37112;45.892;-123.962;2022-08-19T06:47:42;101351.17;;;17.01;87.89
51067;BME280;37112;45.892;-123.962;2022-08-19T06:49:58;101351.09;;;17.02;87.93
51067;BME280;37112;45.892;-123.962;2022-08-19T06:52:15;101349.48;;;17.04;87.92
51067;BME280;37112;45.892;-123.962;2022-08-19T06:54:29;101353.91;;;17.05;88.23
51067;BME280;37112;45.892;-123.962;2022-08-19T06:57:03;101355.73;;;17.07;88.16
51067;BME280;37112;45.892;-123.962;2022-08-19T06:59:18;101358.00;;;17.08;88.38
51067;BME280;37112;45.892;-123.962;2022-08-19T07:01:31;101355.17;;;17.07;88.29
51067;BME280;37112;45.892;-123.962;2022-08-19T07:03:48;101358.31;;;17.08;88.53
51067;BME280;37112;45.892;-123.962;2022-08-19T07:06:05;101356.54;;;17.10;88.59
51067;BME280;37112;45.892;-123.962;2022-08-19T07:08:38;101355.13;;;17.12;88.56
51067;BME280;37112;45.892;-123.962;2022-08-19T07:10:55;101360.69;;;17.14;88.63
51067;BME280;37112;45.892;-123.962;2022-08-19T07:13:09;101371.29;;;17.18;88.74
51067;BME280;37112;45.892;-123.962;2022-08-19T07:15:22;101371.46;;;17.20;88.53
51067;BME280;37112;45.892;-123.962;2022-08-19T07:17:35;101376.69;;;17.20;88.13
51067;BME280;37112;45.892;-123.962;2022-08-19T07:19:50;101377.97;;;17.17;87.95
51067;BME280;37112;45.892;-123.962;2022-08-19T07:22:05;101384.95;;;17.12;87.34
51067;BME280;37112;45.892;-123.962;2022-08-19T07:24:22;101386.08;;;17.07;87.26
51067;BME280;37112;45.892;-123.962;2022-08-19T07:26:42;101387.90;;;17.02;87.05
51067;BME280;37112;45.892;-123.962;2022-08-19T07:29:00;101386.13;;;16.99;87.48
51067;BME280;37112;45.892;-123.962;2022-08-19T07:31:15;101391.64;;;17.02;88.16
51067;BME280;37112;45.892;-123.962;2022-08-19T07:33:32;101392.17;;;17.09;88.65
51067;BME280;37112;45.892;-123.962;2022-08-19T07:35:46;101383.16;;;17.16;88.91
51067;BME280;37112;45.892;-123.962;2022-08-19T07:38:00;101382.33;;;17.21;89.02
51067;BME280;37112;45.892;-123.962;2022-08-19T07:40:14;101378.16;;;17.26;89.05
51067;BME280;37112;45.892;-123.962;2022-08-19T07:42:28;101377.39;;;17.31;89.09
51067;BME280;37112;45.892;-123.962;2022-08-19T07:44:42;101377.34;;;17.33;88.81
51067;BME280;37112;45.892;-123.962;2022-08-19T07:46:59;101374.81;;;17.35;88.64
51067;BME280;37112;45.892;-123.962;2022-08-19T07:49:13;101375.73;;;17.37;88.76
51067;BME280;37112;45.892;-123.962;2022-08-19T07:51:30;101375.44;;;17.41;88.77
51067;BME280;37112;45.892;-123.962;2022-08-19T07:53:45;101372.37;;;17.43;88.81
51067;BME280;37112;45.892;-123.962;2022-08-19T07:55:59;101376.30;;;17.45;88.72
51067;BME280;37112;45.892;-123.962;2022-08-19T07:58:16;101371.94;;;17.44;88.28
51067;BME280;37112;45.892;-123.962;2022-08-19T08:00:29;101372.47;;;17.42;87.98
51067;BME280;37112;45.892;-123.962;2022-08-19T08:02:42;101368.29;;;17.38;87.74
51067;BME280;37112;45.892;-123.962;2022-08-19T08:04:57;101364.19;;;17.36;87.62
51067;BME280;37112;45.892;-123.962;2022-08-19T08:07:27;101361.84;;;17.36;87.78
51067;BME280;37112;45.892;-123.962;2022-08-19T08:09:56;101361.46;;;17.37;87.91
51067;BME280;37112;45.892;-123.962;2022-08-19T08:12:14;101354.70;;;17.36;87.95
51067;BME280;37112;45.892;-123.962;2022-08-19T08:14:45;101356.33;;;17.35;87.81
51067;BME280;37112;45.892;-123.962;2022-08-19T08:17:04;101354.85;;;17.36;88.16
51067;BME280;37112;45.892;-123.962;2022-08-19T08:19:21;101356.80;;;17.36;88.37
51067;BME280;37112;45.892;-123.962;2022-08-19T08:21:35;101358.19;;;17.37;88.19
51067;BME280;37112;45.892;-123.962;2022-08-19T08:23:49;101357.95;;;17.35;87.95
51067;BME280;37112;45.892;-123.962;2022-08-19T08:26:04;101358.46;;;17.34;87.80
51067;BME280;37112;45.892;-123.962;2022-08-19T08:28:18;101358.60;;;17.32;87.69
51067;BME280;37112;45.892;-123.962;2022-08-19T08:30:32;101355.59;;;17.30;87.58
51067;BME280;37112;45.892;-123.962;2022-08-19T08:32:46;101353.87;;;17.24;87.45
51067;BME280;37112;45.892;-123.962;2022-08-19T08:34:59;101351.77;;;17.24;87.64
51067;BME280;37112;45.892;-123.962;2022-08-19T08:37:12;101344.61;;;17.25;87.80
51067;BME280;37112;45.892;-123.962;2022-08-19T08:39:25;101345.75;;;17.27;88.08
51067;BME280;37112;45.892;-123.962;2022-08-19T08:41:45;101341.70;;;17.28;88.10
51067;BME280;37112;45.892;-123.962;2022-08-19T08:43:59;101342.30;;;17.30;88.21
51067;BME280;37112;45.892;-123.962;2022-08-19T08:46:16;101335.19;;;17.31;88.21
51067;BME280;37112;45.892;-123.962;2022-08-19T08:48:44;101332.05;;;17.32;88.16
51067;BME280;37112;45.892;-123.962;2022-08-19T08:51:02;101331.52;;;17.30;87.88
51067;BME280;37112;45.892;-123.962;2022-08-19T08:53:18;101331.59;;;17.29;87.99
51067;BME280;37112;45.892;-123.962;2022-08-19T08:55:40;101337.83;;;17.27;87.94
51067;BME280;37112;45.892;-123.962;2022-08-19T08:57:57;101337.95;;;17.28;88.11
51067;BME280;37112;45.892;-123.962;2022-08-19T09:00:15;101337.90;;;17.29;88.15
51067;BME280;37112;45.892;-123.962;2022-08-19T09:02:30;101338.83;;;17.28;88.06
51067;BME280;37112;45.892;-123.962;2022-08-19T09:04:43;101342.59;;;17.24;87.73
51067;BME280;37112;45.892;-123.962;2022-08-19T09:07:06;101343.59;;;17.23;87.76
51067;BME280;37112;45.892;-123.962;2022-08-19T09:09:43;101340.77;;;17.20;87.64
51067;BME280;37112;45.892;-123.962;2022-08-19T09:12:07;101336.53;;;17.15;87.39
51067;BME280;37112;45.892;-123.962;2022-08-19T09:14:34;101334.41;;;17.13;87.60
51067;BME280;37112;45.892;-123.962;2022-08-19T09:17:00;101330.11;;;17.11;87.80
51067;BME280;37112;45.892;-123.962;2022-08-19T09:19:13;101326.80;;;17.11;88.12
51067;BME280;37112;45.892;-123.962;2022-08-19T09:21:30;101329.38;;;17.13;88.43
51067;BME280;37112;45.892;-123.962;2022-08-19T09:23:44;101329.55;;;17.15;88.63
51067;BME280;37112;45.892;-123.962;2022-08-19T09:25:59;101332.85;;;17.16;88.71
51067;BME280;37112;45.892;-123.962;2022-08-19T09:28:12;101331.72;;;17.17;88.75
51067;BME280;37112;45.892;-123.962;2022-08-19T09:30:34;101336.21;;;17.15;88.56
51067;BME280;37112;45.892;-123.962;2022-08-19T09:32:51;101336.58;;;17.13;88.57
51067;BME280;37112;45.892;-123.962;2022-08-19T09:35:05;101337.21;;;17.11;88.67
51067;BME280;37112;45.892;-123.962;2022-08-19T09:37:18;101337.16;;;17.12;88.75
51067;BME280;37112;45.892;-123.962;2022-08-19T09:39:33;101340.73;;;17.12;88.85
51067;BME280;37112;45.892;-123.962;2022-08-19T09:41:46;101339.02;;;17.14;88.91
51067;BME280;37112;45.892;-123.962;2022-08-19T09:44:00;101338.42;;;17.14;89.01
51067;BME280;37112;45.892;-123.962;2022-08-19T09:46:14;101345.14;;;17.15;88.98
51067;BME280;37112;45.892;-123.962;2022-08-19T09:48:32;101349.59;;;17.14;88.75
51067;BME280;37112;45.892;-123.962;2022-08-19T09:50:46;101348.06;;;17.10;88.43
51067;BME280;37112;45.892;-123.962;2022-08-19T09:53:00;101348.44;;;17.08;88.60
51067;BME280;37112;45.892;-123.962;2022-08-19T09:55:15;101345.55;;;17.08;88.91
51067;BME280;37112;45.892;-123.962;2022-08-19T09:57:28;101348.27;;;17.10;89.26
51067;BME280;37112;45.892;-123.962;2022-08-19T09:59:41;101349.40;;;17.10;89.39
51067;BME280;37112;45.892;-123.962;2022-08-19T10:01:55;101351.71;;;17.08;89.32
51067;BME280;37112;45.892;-123.962;2022-08-19T10:04:19;101359.15;;;17.09;89.51
51067;BME280;37112;45.892;-123.962;2022-08-19T10:06:34;101359.41;;;17.08;89.53
51067;BME280;37112;45.892;-123.962;2022-08-19T10:08:55;101361.36;;;17.10;89.59
51067;BME280;37112;45.892;-123.962;2022-08-19T10:11:08;101358.57;;;17.11;89.70
51067;BME280;37112;45.892;-123.962;2022-08-19T10:13:41;101355.63;;;17.12;89.84
51067;BME280;37112;45.892;-123.962;2022-08-19T10:15:56;101360.58;;;17.13;89.84
51067;BME280;37112;45.892;-123.962;2022-08-19T10:18:10;101368.06;;;17.14;89.86
51067;BME280;37112;45.892;-123.962;2022-08-19T10:20:23;101368.42;;;17.14;89.72
51067;BME280;37112;45.892;-123.962;2022-08-19T10:22:36;101367.04;;;17.13;89.75
51067;BME280;37112;45.892;-123.962;2022-08-19T10:24:50;101371.69;;;17.13;89.77
51067;BME280;37112;45.892;-123.962;2022-08-19T10:27:03;101370.71;;;17.14;90.00
51067;BME280;37112;45.892;-123.962;2022-08-19T10:29:17;101376.36;;;17.15;90.02
51067;BME280;37112;45.892;-123.962;2022-08-19T10:31:41;101375.15;;;17.17;90.15
51067;BME280;37112;45.892;-123.962;2022-08-19T10:34:11;101375.86;;;17.17;90.17
51067;BME280;37112;45.892;-123.962;2022-08-19T10:36:37;101374.73;;;17.16;90.04
51067;BME280;37112;45.892;-123.962;2022-08-19T10:39:08;101369.98;;;17.14;90.06
51067;BME280;37112;45.892;-123.962;2022-08-19T10:41:24;101373.13;;;17.13;90.18
51067;BME280;37112;45.892;-123.962;2022-08-19T10:43:37;101370.85;;;17.13;90.34
51067;BME280;37112;45.892;-123.962;2022-08-19T10:45:54;101370.71;;;17.12;90.46
51067;BME280;37112;45.892;-123.962;2022-08-19T10:48:09;101370.61;;;17.13;90.74
51067;BME280;37112;45.892;-123.962;2022-08-19T10:50:27;101367.21;;;17.15;91.09
51067;BME280;37112;45.892;-123.962;2022-08-19T10:52:56;101371.10;;;17.16;91.04
51067;BME280;37112;45.892;-123.962;2022-08-19T10:55:16;101372.83;;;17.17;90.97
51067;BME280;37112;45.892;-123.962;2022-08-19T10:57:46;101378.55;;;17.15;91.07
51067;BME280;37112;45.892;-123.962;2022-08-19T11:00:15;101381.10;;;17.12;91.03
51067;BME280;37112;45.892;-123.962;2022-08-19T11:02:28;101383.17;;;17.11;91.13
51067;BME280;37112;45.892;-123.962;2022-08-19T11:04:41;101386.83;;;17.12;91.25
51067;BME280;37112;45.892;-123.962;2022-08-19T11:06:55;101387.98;;;17.14;91.31
51067;BME280;37112;45.892;-123.962;2022-08-19T11:09:08;101384.98;;;17.13;91.38
51067;BME280;37112;45.892;-123.962;2022-08-19T11:11:22;101385.52;;;17.13;91.44
51067;BME280;37112;45.892;-123.962;2022-08-19T11:13:37;101386.98;;;17.13;91.55
51067;BME280;37112;45.892;-123.962;2022-08-19T11:15:58;101389.02;;;17.12;91.45
51067;BME280;37112;45.892;-123.962;2022-08-19T11:18:16;101388.38;;;17.11;91.47
51067;BME280;37112;45.892;-123.962;2022-08-19T11:20:29;101386.30;;;17.10;91.46
51067;BME280;37112;45.892;-123.962;2022-08-19T11:22:43;101385.83;;;17.09;91.61
51067;BME280;37112;45.892;-123.962;2022-08-19T11:24:57;101389.00;;;17.08;91.50
51067;BME280;37112;45.892;-123.962;2022-08-19T11:27:10;101384.31;;;17.06;91.55